createdAt,value
2022-08-25T00:00:59.081Z,68.96
2022-08-25T00:01:59.052Z,70.09
2022-08-25T00:02:59.097Z,71.06
2022-08-25T00:03:59.035Z,70.42
2022-08-25T00:04:59.039Z,64.78
2022-08-25T00:05:59.066Z,67.84
2022-08-25T00:07:02.904Z,66.87
2022-08-25T00:08:00.081Z,71.06
2022-08-25T00:08:58.987Z,68.00
2022-08-25T00:09:58.979Z,66.87
2022-08-25T00:11:03.469Z,66.71
2022-08-25T00:11:58.970Z,66.87
2022-08-25T00:12:58.949Z,66.23
2022-08-25T00:13:58.938Z,66.55
2022-08-25T00:14:58.929Z,66.06
2022-08-25T00:15:58.966Z,71.38
2022-08-25T00:16:58.934Z,68.16
2022-08-25T00:17:58.977Z,68.00
2022-08-25T00:18:58.881Z,70.25
2022-08-25T00:19:58.866Z,69.13
2022-08-25T00:20:58.867Z,71.06
2022-08-25T00:21:58.887Z,68.48
2022-08-25T00:22:58.848Z,69.13
2022-08-25T00:23:58.841Z,66.06
2022-08-25T00:24:58.830Z,68.96
2022-08-25T00:25:58.822Z,68.80
2022-08-25T00:26:58.824Z,71.87
2022-08-25T00:27:58.793Z,67.19
2022-08-25T00:29:01.886Z,68.96
2022-08-25T00:29:58.787Z,67.68
2022-08-25T00:30:58.829Z,70.42
2022-08-25T00:31:58.784Z,69.93
2022-08-25T00:32:58.763Z,68.96
2022-08-25T00:33:58.744Z,68.80
2022-08-25T00:34:58.734Z,70.42
2022-08-25T00:35:58.723Z,66.87
2022-08-25T00:36:58.734Z,67.84
2022-08-25T00:37:58.705Z,68.96
2022-08-25T00:38:58.698Z,66.87
2022-08-25T00:39:58.739Z,67.19
2022-08-25T00:40:58.674Z,69.13
2022-08-25T00:41:58.682Z,66.87
2022-08-25T00:42:58.655Z,68.32
2022-08-25T00:43:58.644Z,74.44
2022-08-25T00:44:58.639Z,68.80
2022-08-25T00:45:58.651Z,69.29
2022-08-25T00:46:58.635Z,68.48
2022-08-25T00:48:00.035Z,68.80
2022-08-25T00:48:58.591Z,68.00
2022-08-25T00:49:58.586Z,68.00
2022-08-25T00:50:58.572Z,68.96
2022-08-25T00:51:58.605Z,66.55
2022-08-25T00:52:58.555Z,66.87
2022-08-25T00:53:58.538Z,67.84
2022-08-25T00:55:01.912Z,68.00
2022-08-25T00:55:58.530Z,67.35
2022-08-25T00:56:58.540Z,66.87
2022-08-25T00:57:58.525Z,67.84
2022-08-25T00:58:58.494Z,68.64
2022-08-25T00:59:58.517Z,71.70
2022-08-25T01:00:58.484Z,68.96
2022-08-25T01:01:58.533Z,69.13
2022-08-25T01:02:58.476Z,65.58
2022-08-25T01:03:58.438Z,68.96
2022-08-25T01:04:58.433Z,68.48
2022-08-25T01:05:58.438Z,66.87
2022-08-25T01:06:58.481Z,66.71
2022-08-25T01:07:58.727Z,67.51
2022-08-25T01:08:58.398Z,70.58
2022-08-25T01:09:58.390Z,67.35
2022-08-25T01:10:58.382Z,67.51
2022-08-25T01:11:58.407Z,68.64
2022-08-25T01:12:58.348Z,69.93
2022-08-25T01:13:58.351Z,70.42
2022-08-25T01:14:58.337Z,71.87
2022-08-25T01:15:58.352Z,72.83
2022-08-25T01:16:58.327Z,69.13
2022-08-25T01:17:58.303Z,67.68
2022-08-25T01:18:58.300Z,68.96
2022-08-25T01:19:58.286Z,69.77
2022-08-25T01:20:58.271Z,69.77
2022-08-25T01:21:58.283Z,69.45
2022-08-25T01:22:58.259Z,71.06
2022-08-25T01:23:58.269Z,69.77
2022-08-25T01:24:58.238Z,66.23
2022-08-25T01:25:58.222Z,67.19
2022-08-25T01:26:58.229Z,68.64
2022-08-25T01:27:58.195Z,68.00
2022-08-25T01:28:58.197Z,68.80
2022-08-25T01:29:58.209Z,70.09
2022-08-25T01:30:58.286Z,68.48
2022-08-25T01:31:58.190Z,67.84
2022-08-25T01:32:58.162Z,66.55
2022-08-25T01:33:58.163Z,69.29
2022-08-25T01:34:58.148Z,69.29
2022-08-25T01:35:58.130Z,68.16
2022-08-25T01:36:58.144Z,71.22
2022-08-25T01:37:58.118Z,70.09
2022-08-25T01:38:58.104Z,70.42
2022-08-25T01:39:58.116Z,70.42
2022-08-25T01:40:58.079Z,71.06
2022-08-25T01:41:58.095Z,69.93
2022-08-25T01:42:58.065Z,67.51
2022-08-25T01:43:58.056Z,69.77
2022-08-25T01:44:58.044Z,70.58
2022-08-25T01:45:58.102Z,67.51
2022-08-25T01:46:58.045Z,68.32
2022-08-25T01:47:58.015Z,71.06
2022-08-25T01:48:58.017Z,69.29
2022-08-25T01:49:57.985Z,68.96
2022-08-25T01:50:57.984Z,68.16
2022-08-25T01:51:57.997Z,69.93
2022-08-25T01:52:57.963Z,68.80
2022-08-25T01:53:57.956Z,67.51
2022-08-25T01:54:57.959Z,67.84
2022-08-25T01:55:57.922Z,69.93
2022-08-25T01:56:57.939Z,69.45
2022-08-25T01:57:57.917Z,68.32
2022-08-25T01:58:57.910Z,69.45
2022-08-25T01:59:57.902Z,69.29
2022-08-25T02:00:57.927Z,65.90
2022-08-25T02:02:00.043Z,68.32
2022-08-25T02:05:43.985Z,67.68
2022-08-25T02:06:43.991Z,71.70
2022-08-25T02:07:43.964Z,69.93
2022-08-25T02:08:43.958Z,72.83
2022-08-25T02:09:45.063Z,72.19
2022-08-25T02:10:45.054Z,69.29
2022-08-25T02:11:45.068Z,67.68
2022-08-25T02:12:45.032Z,66.55
2022-08-25T02:13:45.015Z,70.42
2022-08-25T02:14:45.012Z,67.84
2022-08-25T02:15:45.010Z,70.42
2022-08-25T02:16:45.034Z,69.13
2022-08-25T02:17:44.984Z,69.45
2022-08-25T02:18:44.973Z,67.68
2022-08-25T02:19:44.962Z,69.13
2022-08-25T02:20:44.954Z,70.74
2022-08-25T02:21:44.964Z,70.58
2022-08-25T02:22:51.185Z,71.38
2022-08-25T02:23:45.930Z,68.32
2022-08-25T02:24:44.920Z,69.29
2022-08-25T02:25:44.905Z,71.38
2022-08-25T02:26:44.910Z,68.96
2022-08-25T02:27:44.882Z,70.90
2022-08-25T02:28:44.861Z,70.74
2022-08-25T02:29:44.851Z,70.09
2022-08-25T02:30:44.899Z,68.96
2022-08-25T02:31:44.861Z,71.22
2022-08-25T02:32:44.833Z,70.25
2022-08-25T02:33:44.820Z,70.42
2022-08-25T02:34:44.815Z,71.22
2022-08-25T02:35:44.801Z,71.06
2022-08-25T02:36:44.806Z,71.38
2022-08-25T02:37:44.786Z,70.90
2022-08-25T02:38:44.767Z,70.90
2022-08-25T02:39:45.789Z,68.48
2022-08-25T02:40:44.751Z,69.93
2022-08-25T02:41:44.748Z,69.93
2022-08-25T02:42:44.743Z,68.48
2022-08-25T02:43:44.720Z,67.51
2022-08-25T02:44:44.711Z,68.48
2022-08-25T02:45:44.773Z,70.74
2022-08-25T02:46:44.704Z,69.77
2022-08-25T02:47:44.683Z,69.61
2022-08-25T02:48:44.670Z,69.29
2022-08-25T02:49:44.649Z,70.90
2022-08-25T02:50:44.650Z,70.09
2022-08-25T02:51:44.658Z,69.29
2022-08-25T02:52:44.639Z,68.64
2022-08-25T02:53:44.612Z,70.42
2022-08-25T02:54:44.601Z,68.96
2022-08-25T02:55:44.599Z,70.25
2022-08-25T02:56:44.599Z,69.77
2022-08-25T02:57:44.568Z,70.09
2022-08-25T02:58:44.569Z,72.35
2022-08-25T02:59:44.564Z,69.93
2022-08-25T03:00:44.605Z,70.42
2022-08-25T03:01:44.549Z,70.25
2022-08-25T03:02:44.528Z,68.16
2022-08-25T03:03:44.686Z,70.74
2022-08-25T03:04:44.564Z,71.54
2022-08-25T03:05:44.492Z,71.22
2022-08-25T03:07:16.394Z,70.25
2022-08-25T03:07:44.471Z,69.77
2022-08-25T03:08:44.472Z,69.77
2022-08-25T03:09:44.463Z,70.90
2022-08-25T03:10:44.457Z,70.09
2022-08-25T03:11:44.463Z,69.93
2022-08-25T03:12:44.437Z,70.74
2022-08-25T03:13:44.420Z,68.96
2022-08-25T03:14:44.429Z,69.93
2022-08-25T03:15:44.411Z,68.96
2022-08-25T03:16:46.238Z,68.48
2022-08-25T03:17:45.850Z,68.48
2022-08-25T03:18:44.376Z,69.29
2022-08-25T03:19:44.369Z,67.51
2022-08-25T03:20:44.401Z,70.42
2022-08-25T03:21:44.357Z,70.58
2022-08-25T03:22:44.339Z,72.03
2022-08-25T03:23:44.339Z,69.93
2022-08-25T03:24:44.327Z,71.70
2022-08-25T03:25:44.306Z,71.06
2022-08-25T03:26:44.320Z,67.84
2022-08-25T03:27:44.298Z,66.87
2022-08-25T03:28:44.292Z,69.61
2022-08-25T03:29:44.269Z,69.93
2022-08-25T03:30:44.268Z,69.93
2022-08-25T03:31:44.314Z,68.96
2022-08-25T03:32:44.250Z,68.96
2022-08-25T03:33:44.232Z,68.48
2022-08-25T03:34:44.226Z,68.96
2022-08-25T03:35:44.208Z,69.93
2022-08-25T03:36:44.230Z,70.58
2022-08-25T03:37:44.194Z,70.90
2022-08-25T03:38:44.185Z,69.93
2022-08-25T03:39:44.336Z,71.06
2022-08-25T03:40:44.171Z,71.38
2022-08-25T03:41:44.168Z,69.29
2022-08-25T03:42:45.173Z,71.54
2022-08-25T03:43:45.148Z,71.38
2022-08-25T03:44:44.135Z,69.29
2022-08-25T03:45:44.161Z,70.09
2022-08-25T03:46:44.122Z,69.93
2022-08-25T03:47:44.098Z,71.06
2022-08-25T03:48:44.094Z,71.54
2022-08-25T03:49:44.081Z,71.06
2022-08-25T03:50:44.118Z,72.03
2022-08-25T03:51:45.080Z,69.45
2022-08-25T03:52:44.058Z,70.25
2022-08-25T03:53:44.030Z,69.13
2022-08-25T03:54:44.026Z,69.61
2022-08-25T03:55:44.013Z,70.90
2022-08-25T03:56:44.034Z,69.61
2022-08-25T03:57:43.993Z,71.70
2022-08-25T03:58:43.986Z,71.54
2022-08-25T03:59:44.979Z,71.54
2022-08-25T04:00:43.988Z,73.96
2022-08-25T04:01:43.963Z,70.25
2022-08-25T04:02:44.017Z,70.25
2022-08-25T04:03:43.943Z,72.35
2022-08-25T04:04:43.924Z,72.83
2022-08-25T04:05:43.905Z,71.54
2022-08-25T04:06:43.922Z,70.42
2022-08-25T04:07:44.899Z,73.48
2022-08-25T04:08:43.903Z,72.51
2022-08-25T04:09:43.883Z,70.74
2022-08-25T04:10:43.879Z,71.38
2022-08-25T04:11:43.877Z,71.87
2022-08-25T04:12:43.854Z,71.87
2022-08-25T04:13:43.832Z,72.03
2022-08-25T04:14:43.834Z,71.87
2022-08-25T04:15:43.816Z,71.87
2022-08-25T04:16:43.930Z,70.90
2022-08-25T04:17:43.796Z,71.87
2022-08-25T04:18:43.788Z,71.70
2022-08-25T04:19:43.778Z,70.42
2022-08-25T04:20:46.695Z,72.19
2022-08-25T04:21:44.775Z,72.03
2022-08-25T04:22:45.194Z,72.19
2022-08-25T04:23:43.734Z,72.03
2022-08-25T04:24:43.750Z,71.87
2022-08-25T04:25:43.718Z,71.87
2022-08-25T04:26:43.722Z,72.35
2022-08-25T04:27:43.694Z,70.74
2022-08-25T04:28:43.688Z,69.61
2022-08-25T04:29:43.671Z,72.99
2022-08-25T04:30:43.689Z,72.35
2022-08-25T04:31:43.783Z,72.19
2022-08-25T04:32:43.647Z,72.51
2022-08-25T04:33:43.643Z,70.90
2022-08-25T04:34:43.630Z,71.70
2022-08-25T04:35:43.617Z,72.03
2022-08-25T04:36:43.620Z,71.06
2022-08-25T04:37:43.592Z,72.99
2022-08-25T04:38:43.625Z,72.67
2022-08-25T04:39:43.580Z,72.03
2022-08-25T04:40:43.630Z,71.87
2022-08-25T04:41:43.576Z,70.58
2022-08-25T04:42:43.649Z,72.35
2022-08-25T04:43:43.544Z,72.19
2022-08-25T04:44:43.525Z,70.90
2022-08-25T04:45:43.555Z,71.70
2022-08-25T04:46:43.525Z,72.83
2022-08-25T04:47:43.603Z,71.06
2022-08-25T04:48:43.492Z,71.70
2022-08-25T04:49:43.486Z,71.87
2022-08-25T04:50:43.481Z,72.83
2022-08-25T04:51:43.483Z,71.06
2022-08-25T04:52:43.459Z,69.93
2022-08-25T04:53:43.443Z,70.25
2022-08-25T04:54:43.448Z,70.42
2022-08-25T04:55:43.431Z,71.54
2022-08-25T04:56:43.427Z,71.38
2022-08-25T04:57:43.422Z,72.67
2022-08-25T04:58:43.482Z,72.35
2022-08-25T04:59:43.384Z,71.06
2022-08-25T05:00:43.413Z,71.54
2022-08-25T05:01:43.376Z,71.87
2022-08-25T05:02:43.357Z,71.06
2022-08-25T05:03:43.354Z,70.90
2022-08-25T05:04:43.424Z,69.93
2022-08-25T05:05:43.334Z,68.32
2022-08-25T05:06:43.336Z,68.96
2022-08-25T05:07:43.304Z,71.54
2022-08-25T05:08:46.030Z,68.32
2022-08-25T05:09:43.291Z,68.96
2022-08-25T05:10:43.279Z,68.80
2022-08-25T05:11:43.283Z,70.42
2022-08-25T05:12:43.254Z,68.80
2022-08-25T05:13:43.248Z,69.29
2022-08-25T05:14:43.245Z,69.13
2022-08-25T05:15:43.269Z,69.45
2022-08-25T05:16:43.301Z,69.29
2022-08-25T05:17:43.213Z,68.32
2022-08-25T05:18:43.203Z,70.74
2022-08-25T05:19:44.192Z,69.93
2022-08-25T05:20:43.173Z,69.13
2022-08-25T05:21:43.184Z,68.00
2022-08-25T05:22:43.184Z,70.09
2022-08-25T05:23:43.156Z,70.25
2022-08-25T05:24:43.143Z,70.09
2022-08-25T05:25:44.136Z,70.74
2022-08-25T05:26:43.138Z,70.90
2022-08-25T05:27:43.116Z,70.74
2022-08-25T05:28:43.097Z,70.58
2022-08-25T05:29:43.097Z,70.90
2022-08-25T05:30:43.084Z,69.93
2022-08-25T05:31:47.055Z,70.25
2022-08-25T05:32:44.062Z,70.74
2022-08-25T05:33:43.050Z,68.96
2022-08-25T05:34:43.042Z,68.96
2022-08-25T05:35:43.034Z,68.16
2022-08-25T05:36:43.037Z,70.90
2022-08-25T05:37:43.016Z,70.42
2022-08-25T05:38:43.004Z,71.87
2022-08-25T05:39:43.002Z,70.42
2022-08-25T05:40:42.990Z,71.38
2022-08-25T05:41:42.988Z,71.54
2022-08-25T05:42:42.964Z,69.61
2022-08-25T05:43:42.952Z,70.90
2022-08-25T05:44:42.942Z,70.74
2022-08-25T05:45:43.014Z,72.19
2022-08-25T05:46:42.940Z,68.64
2022-08-25T05:47:42.919Z,70.58
2022-08-25T05:48:42.893Z,67.51
2022-08-25T05:49:42.892Z,71.06
2022-08-25T05:50:42.904Z,70.90
2022-08-25T05:51:42.886Z,71.54
2022-08-25T05:52:42.878Z,72.35
2022-08-25T05:53:42.850Z,70.42
2022-08-25T05:54:43.091Z,70.42
2022-08-25T05:55:42.836Z,69.93
2022-08-25T05:56:42.826Z,70.74
2022-08-25T05:57:42.808Z,70.42
2022-08-25T05:58:42.801Z,70.42
2022-08-25T05:59:42.792Z,71.22
2022-08-25T06:00:42.842Z,68.96
2022-08-25T06:01:43.551Z,67.84
2022-08-25T06:02:42.757Z,70.25
2022-08-25T06:03:42.807Z,68.48
2022-08-25T06:04:42.738Z,67.84
2022-08-25T06:05:42.731Z,68.48
2022-08-25T06:06:42.736Z,68.80
2022-08-25T06:07:42.713Z,72.51
2022-08-25T06:08:42.701Z,70.90
2022-08-25T06:09:42.690Z,70.58
2022-08-25T06:10:42.685Z,68.96
2022-08-25T06:11:42.705Z,68.00
2022-08-25T06:12:42.663Z,67.68
2022-08-25T06:13:42.652Z,68.48
2022-08-25T06:14:42.654Z,67.19
2022-08-25T06:15:42.629Z,67.35
2022-08-25T06:16:42.662Z,69.45
2022-08-25T06:17:42.623Z,68.96
2022-08-25T06:18:42.598Z,68.64
2022-08-25T06:19:42.593Z,68.16
2022-08-25T06:20:42.583Z,67.51
2022-08-25T06:21:42.592Z,67.03
2022-08-25T06:22:42.563Z,67.84
2022-08-25T06:23:42.547Z,69.13
2022-08-25T06:24:42.551Z,68.48
2022-08-25T06:25:42.540Z,68.00
2022-08-25T06:26:42.544Z,68.32
2022-08-25T06:27:42.510Z,66.87
2022-08-25T06:28:42.504Z,69.77
2022-08-25T06:29:42.499Z,67.84
2022-08-25T06:30:42.484Z,69.77
2022-08-25T06:31:42.700Z,64.61
2022-08-25T06:32:42.466Z,66.87
2022-08-25T06:33:42.459Z,66.55
2022-08-25T06:34:42.458Z,66.23
2022-08-25T06:35:42.450Z,68.32
2022-08-25T06:36:42.441Z,67.84
2022-08-25T06:37:42.416Z,67.51
2022-08-25T06:38:42.417Z,67.35
2022-08-25T06:39:42.398Z,67.68
2022-08-25T06:40:42.387Z,67.51
2022-08-25T06:41:42.395Z,68.16
2022-08-25T06:42:42.373Z,63.65
2022-08-25T06:43:48.030Z,66.87
2022-08-25T06:44:43.343Z,68.16
2022-08-25T06:45:42.340Z,65.58
2022-08-25T06:46:42.393Z,67.03
2022-08-25T06:47:42.306Z,68.00
2022-08-25T06:48:42.304Z,66.55
2022-08-25T06:49:42.299Z,68.32
2022-08-25T06:50:42.288Z,68.32
2022-08-25T06:51:42.294Z,65.74
2022-08-25T06:52:42.268Z,66.39
2022-08-25T06:53:42.262Z,67.51
2022-08-25T06:54:42.245Z,68.00
2022-08-25T06:55:42.237Z,67.35
2022-08-25T06:56:42.245Z,66.87
2022-08-25T06:57:42.224Z,68.48
2022-08-25T06:58:42.253Z,68.16
2022-08-25T06:59:42.201Z,65.90
2022-08-25T07:00:42.232Z,67.51
2022-08-25T07:01:42.292Z,65.74
2022-08-25T07:02:42.225Z,66.23
2022-08-25T07:03:42.165Z,68.64
2022-08-25T07:04:42.153Z,69.29
2022-08-25T07:05:43.919Z,68.16
2022-08-25T07:06:43.143Z,65.74
2022-08-25T07:07:43.640Z,66.71
2022-08-25T07:08:42.136Z,68.96
2022-08-25T07:09:42.119Z,66.87
2022-08-25T07:10:42.107Z,68.16
2022-08-25T07:11:42.123Z,65.58
2022-08-25T07:12:42.085Z,66.23
2022-08-25T07:13:42.099Z,64.78
2022-08-25T07:14:46.598Z,65.10
2022-08-25T07:15:43.058Z,66.71
2022-08-25T07:16:45.994Z,67.19
2022-08-25T07:17:43.042Z,65.74
2022-08-25T07:18:42.037Z,67.35
2022-08-25T07:19:42.026Z,65.58
2022-08-25T07:20:42.025Z,63.81
2022-08-25T07:21:42.026Z,66.23
2022-08-25T07:22:41.998Z,65.42
2022-08-25T07:23:41.993Z,65.74
2022-08-25T07:24:41.980Z,67.03
2022-08-25T07:25:41.967Z,66.06
2022-08-25T07:26:41.983Z,67.03
2022-08-25T07:27:42.240Z,63.97
2022-08-25T07:28:47.339Z,66.55
2022-08-25T07:29:42.931Z,67.68
2022-08-25T07:30:41.933Z,67.68
2022-08-25T07:31:42.012Z,63.33
2022-08-25T07:32:43.242Z,65.26
2022-08-25T07:33:41.895Z,70.58
2022-08-25T07:34:41.898Z,66.39
2022-08-25T07:35:43.795Z,66.87
2022-08-25T07:36:41.885Z,66.23
2022-08-25T07:37:49.743Z,66.55
2022-08-25T07:38:43.848Z,66.87
2022-08-25T07:39:41.836Z,67.19
2022-08-25T07:40:42.696Z,63.97
2022-08-25T07:41:41.849Z,67.84
2022-08-25T07:42:41.810Z,67.68
2022-08-25T07:43:41.801Z,65.90
2022-08-25T07:44:41.789Z,66.06
2022-08-25T07:45:49.496Z,64.94
2022-08-25T07:46:42.837Z,67.35
2022-08-25T07:47:41.809Z,66.06
2022-08-25T07:48:41.747Z,64.13
2022-08-25T07:49:41.741Z,66.39
2022-08-25T07:50:41.761Z,64.45
2022-08-25T07:52:04.271Z,66.55
2022-08-25T07:52:42.741Z,68.32
2022-08-25T07:53:41.708Z,68.64
2022-08-25T07:54:41.696Z,66.39
2022-08-25T07:55:41.680Z,66.55
2022-08-25T07:56:41.691Z,66.23
2022-08-25T07:57:41.667Z,64.78
2022-08-25T07:58:41.651Z,64.13
2022-08-25T07:59:41.631Z,66.23
2022-08-25T08:00:42.191Z,64.94
2022-08-25T08:01:41.682Z,66.39
2022-08-25T08:02:41.666Z,67.68
2022-08-25T08:03:50.636Z,66.06
2022-08-25T08:04:43.584Z,67.03
2022-08-25T08:05:41.579Z,62.20
2022-08-25T08:06:41.581Z,65.58
2022-08-25T08:07:43.820Z,66.71
2022-08-25T08:08:41.633Z,66.06
2022-08-25T08:09:41.540Z,66.71
2022-08-25T08:11:02.749Z,67.35
2022-08-25T08:11:53.701Z,64.78
2022-08-25T08:12:43.508Z,64.45
2022-08-25T08:13:41.640Z,64.94
2022-08-25T08:14:45.032Z,66.23
2022-08-25T08:15:41.529Z,63.49
2022-08-25T08:16:41.487Z,64.29
2022-08-25T08:17:41.473Z,64.94
2022-08-25T08:18:41.449Z,66.39
2022-08-25T08:19:44.863Z,67.84
2022-08-25T08:20:42.947Z,66.71
2022-08-25T08:21:41.451Z,66.71
2022-08-25T08:22:41.412Z,67.03
2022-08-25T08:23:41.432Z,66.55
2022-08-25T08:24:44.864Z,66.55
2022-08-25T08:25:43.377Z,65.90
2022-08-25T08:26:58.269Z,64.61
2022-08-25T08:27:43.363Z,65.42
2022-08-25T08:28:41.351Z,64.94
2022-08-25T08:29:41.336Z,65.74
2022-08-25T08:30:53.509Z,64.13
2022-08-25T08:31:48.584Z,63.65
2022-08-25T08:33:08.217Z,64.61
2022-08-25T08:33:43.304Z,64.78
2022-08-25T08:34:41.294Z,66.23
2022-08-25T08:35:41.307Z,64.13
2022-08-25T08:36:41.288Z,66.39
2022-08-25T08:37:41.262Z,65.26
2022-08-25T08:38:41.246Z,66.23
2022-08-25T08:39:41.241Z,64.94
2022-08-25T08:40:41.236Z,65.74
2022-08-25T08:42:07.672Z,62.84
2022-08-25T08:42:46.735Z,63.16
2022-08-25T08:43:41.216Z,63.97
2022-08-25T08:44:41.188Z,63.65
2022-08-25T08:45:43.990Z,62.68
2022-08-25T08:46:41.240Z,67.03
2022-08-25T08:47:41.286Z,68.80
2022-08-25T08:48:41.156Z,64.61
2022-08-25T08:49:41.148Z,65.10
2022-08-25T08:50:41.143Z,63.49
2022-08-25T08:51:41.147Z,64.94
2022-08-25T08:52:41.119Z,65.42
2022-08-25T08:53:41.115Z,62.52
2022-08-25T08:54:41.384Z,63.49
2022-08-25T08:55:41.095Z,62.68
2022-08-25T08:56:45.458Z,64.61
2022-08-25T08:57:42.155Z,64.29
2022-08-25T08:58:41.775Z,61.87
2022-08-25T08:59:41.060Z,63.49
2022-08-25T09:00:41.039Z,62.68
2022-08-25T09:01:42.090Z,64.45
2022-08-25T09:02:50.527Z,64.94
2022-08-25T09:03:42.063Z,61.23
2022-08-25T09:04:41.005Z,64.78
2022-08-25T09:05:44.951Z,62.52
2022-08-25T09:06:42.097Z,58.17
2022-08-25T09:07:42.334Z,57.69
2022-08-25T09:08:44.692Z,58.49
2022-08-25T09:09:40.957Z,61.55
2022-08-25T09:10:40.952Z,60.10
2022-08-25T09:11:40.958Z,59.94
2022-08-25T09:12:40.989Z,60.26
2022-08-25T09:13:40.928Z,58.49
2022-08-25T09:14:40.913Z,61.07
2022-08-25T09:15:41.237Z,54.95
2022-08-25T09:16:40.989Z,53.66
2022-08-25T09:17:40.885Z,56.40
2022-08-25T09:18:40.877Z,58.01
2022-08-25T09:19:42.349Z,60.75
2022-08-25T09:20:40.880Z,62.20
2022-08-25T09:21:40.861Z,58.01
2022-08-25T09:22:40.840Z,58.97
2022-08-25T09:23:40.830Z,58.81
2022-08-25T09:24:40.823Z,58.33
2022-08-25T09:25:52.728Z,56.24
2022-08-25T09:26:41.828Z,56.40
2022-08-25T09:27:40.817Z,56.56
2022-08-25T09:28:40.786Z,60.10
2022-08-25T09:29:40.772Z,58.17
2022-08-25T09:30:40.777Z,58.65
2022-08-25T09:31:40.821Z,56.24
2022-08-25T09:32:40.750Z,57.20
2022-08-25T09:33:40.740Z,59.30
2022-08-25T09:34:40.775Z,57.20
2022-08-25T09:35:40.755Z,57.52
2022-08-25T09:36:40.723Z,57.52
2022-08-25T09:37:40.701Z,58.17
2022-08-25T09:38:40.700Z,56.40
2022-08-25T09:39:40.815Z,56.56
2022-08-25T09:40:40.677Z,56.40
2022-08-25T09:41:40.688Z,57.36
2022-08-25T09:43:12.567Z,56.72
2022-08-25T09:43:40.651Z,58.97
2022-08-25T09:44:40.633Z,56.40
2022-08-25T09:45:40.633Z,60.10
2022-08-25T09:46:40.669Z,57.85
2022-08-25T09:47:40.620Z,59.14
2022-08-25T09:48:40.971Z,58.17
2022-08-25T09:49:40.590Z,58.01
2022-08-25T09:50:45.580Z,57.04
2022-08-25T09:51:43.401Z,58.17
2022-08-25T09:52:41.387Z,58.81
2022-08-25T09:53:40.560Z,57.04
2022-08-25T09:54:44.301Z,57.04
2022-08-25T09:55:41.536Z,57.04
2022-08-25T09:56:40.556Z,56.72
2022-08-25T09:57:40.516Z,62.20
2022-08-25T09:58:40.510Z,59.46
2022-08-25T09:59:40.504Z,59.46
2022-08-25T10:00:41.492Z,60.75
2022-08-25T10:01:40.537Z,60.91
2022-08-25T10:02:40.498Z,59.14
2022-08-25T10:03:40.465Z,59.14
2022-08-25T10:04:40.555Z,59.14
2022-08-25T10:05:40.448Z,59.62
2022-08-25T10:06:40.436Z,60.91
2022-08-25T10:07:40.453Z,61.71
2022-08-25T10:08:40.416Z,59.30
2022-08-25T10:09:40.411Z,60.26
2022-08-25T10:10:41.956Z,58.97
2022-08-25T10:11:40.387Z,58.65
2022-08-25T10:12:42.930Z,58.49
2022-08-25T10:13:40.371Z,57.85
2022-08-25T10:14:44.669Z,59.46
2022-08-25T10:15:40.380Z,60.59
2022-08-25T10:16:40.372Z,61.07
2022-08-25T10:17:40.350Z,63.00
2022-08-25T10:18:40.320Z,60.59
2022-08-25T10:19:40.324Z,60.10
2022-08-25T10:20:42.221Z,60.10
2022-08-25T10:21:40.297Z,63.16
2022-08-25T10:22:40.302Z,62.20
2022-08-25T10:23:40.277Z,61.07
2022-08-25T10:24:41.040Z,60.75
2022-08-25T10:25:40.276Z,61.39
2022-08-25T10:26:40.246Z,59.62
2022-08-25T10:27:40.253Z,60.91
2022-08-25T10:28:40.221Z,59.30
2022-08-25T10:29:40.858Z,59.94
2022-08-25T10:30:40.279Z,58.65
2022-08-25T10:31:41.328Z,60.42
2022-08-25T10:32:40.218Z,59.30
2022-08-25T10:33:40.187Z,60.10
2022-08-25T10:34:40.173Z,58.81
2022-08-25T10:35:40.167Z,57.36
2022-08-25T10:36:40.148Z,59.62
2022-08-25T10:37:40.175Z,58.81
2022-08-25T10:38:43.133Z,60.10
2022-08-25T10:39:40.697Z,58.97
2022-08-25T10:40:40.222Z,58.65
2022-08-25T10:41:40.106Z,56.40
2022-08-25T10:42:40.118Z,58.49
2022-08-25T10:43:40.099Z,57.36
2022-08-25T10:44:40.083Z,57.85
2022-08-25T10:45:40.075Z,57.52
2022-08-25T10:46:40.162Z,57.20
2022-08-25T10:47:40.067Z,57.36
2022-08-25T10:48:40.031Z,57.20
2022-08-25T10:49:40.028Z,58.01
2022-08-25T10:50:40.026Z,55.11
2022-08-25T10:51:41.019Z,56.88
2022-08-25T10:52:40.022Z,53.98
2022-08-25T10:53:39.987Z,55.11
2022-08-25T10:54:39.973Z,54.46
2022-08-25T10:55:40.461Z,56.88
2022-08-25T10:56:40.783Z,56.56
2022-08-25T10:57:39.977Z,56.88
2022-08-25T10:58:39.947Z,58.33
2022-08-25T10:59:39.935Z,55.43
2022-08-25T11:00:40.368Z,56.40
2022-08-25T11:01:43.938Z,58.17
2022-08-25T11:02:41.413Z,59.94
2022-08-25T11:03:39.896Z,60.26
2022-08-25T11:04:39.938Z,60.75
2022-08-25T11:05:39.971Z,59.94
2022-08-25T11:06:39.877Z,59.30
2022-08-25T11:07:39.878Z,58.33
2022-08-25T11:08:39.839Z,59.14
2022-08-25T11:09:40.212Z,59.78
2022-08-25T11:10:39.837Z,61.07
2022-08-25T11:11:39.819Z,60.42
2022-08-25T11:12:39.845Z,59.30
2022-08-25T11:13:39.802Z,59.62
2022-08-25T11:14:39.794Z,66.06
2022-08-25T11:15:46.757Z,61.23
2022-08-25T11:16:41.845Z,58.65
2022-08-25T11:17:39.778Z,59.78
2022-08-25T11:18:39.757Z,58.17
2022-08-25T11:19:39.746Z,57.52
2022-08-25T11:20:39.732Z,58.65
2022-08-25T11:21:39.730Z,57.36
2022-08-25T11:22:39.752Z,61.71
2022-08-25T11:23:39.704Z,61.39
2022-08-25T11:24:39.702Z,61.55
2022-08-25T11:25:39.681Z,60.91
2022-08-25T11:26:40.670Z,59.94
2022-08-25T11:27:39.695Z,59.94
2022-08-25T11:28:39.646Z,61.55
2022-08-25T11:29:39.645Z,60.42
2022-08-25T11:30:39.712Z,63.65
2022-08-25T11:31:39.627Z,60.42
2022-08-25T11:32:39.627Z,60.59
2022-08-25T11:33:39.607Z,59.94
2022-08-25T11:34:43.655Z,60.26
2022-08-25T11:35:39.598Z,63.16
2022-08-25T11:36:39.583Z,62.84
2022-08-25T11:37:39.591Z,62.04
2022-08-25T11:38:39.578Z,61.87
2022-08-25T11:39:40.225Z,61.71
2022-08-25T11:40:39.545Z,60.42
2022-08-25T11:41:39.543Z,59.46
2022-08-25T11:42:39.544Z,59.46
2022-08-25T11:43:40.530Z,58.17
2022-08-25T11:44:39.510Z,59.94
2022-08-25T11:45:40.571Z,58.65
2022-08-25T11:46:39.491Z,59.30
2022-08-25T11:47:39.493Z,60.26
2022-08-25T11:48:39.465Z,60.91
2022-08-25T11:49:39.462Z,59.14
2022-08-25T11:50:39.447Z,61.39
2022-08-25T11:51:39.465Z,58.33
2022-08-25T11:52:39.441Z,57.52
2022-08-25T11:53:42.143Z,58.65
2022-08-25T11:54:39.409Z,56.24
2022-08-25T11:55:39.399Z,57.36
2022-08-25T11:56:40.065Z,56.88
2022-08-25T11:57:39.444Z,53.50
2022-08-25T11:58:40.602Z,54.14
2022-08-25T11:59:39.363Z,57.04
2022-08-25T12:00:39.351Z,56.07
2022-08-25T12:01:39.348Z,58.65
2022-08-25T12:02:39.376Z,55.91
2022-08-25T12:03:39.324Z,53.33
2022-08-25T12:04:44.250Z,56.72
2022-08-25T12:05:39.339Z,55.75
2022-08-25T12:06:39.295Z,55.43
2022-08-25T12:07:39.301Z,55.91
2022-08-25T12:08:39.275Z,57.20
2022-08-25T12:09:39.264Z,58.33
2022-08-25T12:10:39.263Z,58.65
2022-08-25T12:11:39.255Z,57.85
2022-08-25T12:12:39.253Z,60.59
2022-08-25T12:13:39.225Z,58.81
2022-08-25T12:14:39.227Z,58.81
2022-08-25T12:15:39.214Z,60.75
2022-08-25T12:16:39.278Z,65.58
2022-08-25T12:17:39.455Z,58.33
2022-08-25T12:18:39.182Z,59.14
2022-08-25T12:19:40.180Z,60.10
2022-08-25T12:20:39.162Z,57.85
2022-08-25T12:21:39.161Z,62.68
2022-08-25T12:22:39.175Z,60.26
2022-08-25T12:23:45.022Z,61.07
2022-08-25T12:24:40.137Z,58.97
2022-08-25T12:25:39.116Z,59.30
2022-08-25T12:26:39.110Z,58.49
2022-08-25T12:27:39.126Z,57.69
2022-08-25T12:28:39.176Z,58.65
2022-08-25T12:29:39.092Z,59.62
2022-08-25T12:30:39.122Z,59.62
2022-08-25T12:31:39.087Z,59.14
2022-08-25T12:32:39.144Z,58.01
2022-08-25T12:33:39.047Z,57.20
2022-08-25T12:34:39.055Z,58.65
2022-08-25T12:35:39.027Z,62.68
2022-08-25T12:36:39.006Z,59.94
2022-08-25T12:37:39.027Z,60.59
2022-08-25T12:38:43.182Z,58.33
2022-08-25T12:39:40.990Z,59.14
2022-08-25T12:40:38.981Z,61.07
2022-08-25T12:41:38.972Z,60.91
2022-08-25T12:42:39.000Z,59.94
2022-08-25T12:43:38.944Z,59.94
2022-08-25T12:44:38.939Z,58.81
2022-08-25T12:45:38.984Z,61.87
2022-08-25T12:46:38.926Z,61.55
2022-08-25T12:47:40.850Z,61.55
2022-08-25T12:48:40.911Z,59.62
2022-08-25T12:49:38.907Z,58.97
2022-08-25T12:50:38.879Z,59.46
2022-08-25T12:51:38.870Z,59.46
2022-08-25T12:52:38.993Z,61.39
2022-08-25T12:53:38.860Z,58.81
2022-08-25T12:54:38.847Z,59.94
2022-08-25T12:55:38.846Z,58.97